Time;durP1;ratioP1;P1;durP2;ratioP2;P2;SDS_P1;SDS_P2;PMS_P1;PMS_P2;Temp;Humidity;BMP_temperature;BMP_pressure;BME280_temperature;BME280_humidity;BME280_pressure;Samples;Min_cycle;Max_cycle;Signal;HPM_P1;HPM_P2
2023/12/01 00:00:59;;;;;;;14.70;5.05;;;0.70;99.90;;;;;;5115883;27;20144;-71
2023/12/01 00:03:24;;;;;;;8.60;4.38;;;0.70;99.90;;;;;;5109124;27;20058;-71
2023/12/01 00:05:50;;;;;;;10.68;5.03;;;0.70;99.90;;;;;;5107841;27;20100;-71
2023/12/01 00:08:16;;;;;;;9.02;4.70;;;0.70;99.90;;;;;;5110960;27;20047;-71
2023/12/01 00:10:43;;;;;;;9.82;4.43;;;0.70;99.90;;;;;;5115283;27;20047;-71
2023/12/01 00:13:08;;;;;;;13.82;6.45;;;0.70;99.90;;;;;;5114322;27;20039;-71
2023/12/01 00:15:34;;;;;;;13.40;4.65;;;0.70;99.90;;;;;;5118679;27;20043;-72
2023/12/01 00:18:00;;;;;;;20.83;4.45;;;0.70;99.90;;;;;;5108358;27;20034;-72
2023/12/01 00:20:26;;;;;;;9.57;4.25;;;0.60;99.90;;;;;;5102615;27;20046;-71
2023/12/01 00:22:52;;;;;;;14.93;5.38;;;0.70;99.90;;;;;;5104768;27;20039;-71
2023/12/01 00:25:18;;;;;;;12.88;5.68;;;0.60;99.90;;;;;;5117062;27;20035;-72
2023/12/01 00:27:45;;;;;;;13.45;5.10;;;0.60;99.90;;;;;;5108694;27;20415;-72
2023/12/01 00:30:11;;;;;;;9.07;3.72;;;0.60;99.90;;;;;;5099809;27;20038;-71
2023/12/01 00:32:37;;;;;;;13.82;4.72;;;0.60;99.90;;;;;;5120257;27;20041;-71
2023/12/01 00:35:06;;;;;;;11.20;4.93;;;0.70;99.90;;;;;;5112559;27;20035;-71
2023/12/01 00:37:31;;;;;;;9.77;4.20;;;0.60;99.90;;;;;;5118881;27;20506;-72
2023/12/01 00:39:57;;;;;;;13.18;4.55;;;0.70;99.90;;;;;;5117624;27;20041;-72
2023/12/01 00:42:23;;;;;;;14.30;5.18;;;0.70;99.90;;;;;;5108764;27;20109;-71
2023/12/01 00:44:50;;;;;;;9.88;4.05;;;0.70;99.90;;;;;;5119315;27;20043;-72
2023/12/01 00:47:15;;;;;;;11.23;4.70;;;0.70;99.90;;;;;;5104276;27;20035;-71
2023/12/01 00:49:41;;;;;;;11.13;4.32;;;0.70;99.90;;;;;;5119009;27;20091;-72
2023/12/01 00:52:07;;;;;;;10.90;5.43;;;0.70;99.90;;;;;;5125137;28;20035;-71
2023/12/01 00:54:33;;;;;;;11.13;4.85;;;0.70;99.90;;;;;;5102916;27;20038;-71
2023/12/01 00:56:58;;;;;;;12.30;4.50;;;0.70;99.90;;;;;;5117320;27;20035;-72
2023/12/01 00:59:24;;;;;;;11.38;4.50;;;0.70;99.90;;;;;;5113732;27;20043;-71
2023/12/01 01:01:50;;;;;;;11.45;3.70;;;0.70;99.90;;;;;;5119254;27;20494;-72
2023/12/01 01:04:16;;;;;;;10.48;4.40;;;0.80;99.90;;;;;;5106315;27;20716;-72
2023/12/01 01:06:42;;;;;;;13.38;4.28;;;0.80;99.90;;;;;;5104731;27;20051;-72
2023/12/01 01:09:08;;;;;;;17.45;5.38;;;0.80;99.90;;;;;;5099990;27;20047;-72
2023/12/01 01:11:35;;;;;;;13.18;4.72;;;0.80;99.90;;;;;;5122134;27;20114;-72
2023/12/01 01:14:04;;;;;;;10.57;5.28;;;0.70;99.90;;;;;;5120913;27;20412;-72
2023/12/01 01:20:11;;;;;;;8.45;4.85;;;0.80;99.90;;;;;;5146482;27;20045;-72
2023/12/01 01:22:38;;;;;;;7.35;4.25;;;0.70;99.90;;;;;;5111603;27;20031;-71
2023/12/01 01:25:06;;;;;;;12.63;4.95;;;0.70;99.90;;;;;;5118560;27;20107;-71
2023/12/01 01:27:33;;;;;;;8.68;3.35;;;0.70;99.90;;;;;;5106547;27;20067;-71
2023/12/01 01:30:00;;;;;;;13.68;6.35;;;0.70;99.90;;;;;;5123456;27;20482;-72
2023/12/01 01:32:26;;;;;;;11.18;5.07;;;0.80;99.90;;;;;;5127429;27;20035;-71
2023/12/01 01:34:51;;;;;;;12.80;5.55;;;0.70;99.90;;;;;;5128526;27;20095;-71
2023/12/01 01:37:29;;;;;;;9.55;3.80;;;0.80;99.90;;;;;;5114041;27;20617;-73
2023/12/01 01:39:55;;;;;;;10.68;3.38;;;0.80;99.90;;;;;;5117290;27;20507;-71
2023/12/01 01:42:21;;;;;;;10.55;4.85;;;0.80;99.90;;;;;;5120236;27;20035;-72
2023/12/01 01:44:47;;;;;;;9.00;3.80;;;0.70;99.90;;;;;;5116791;27;20036;-72
2023/12/01 01:47:13;;;;;;;6.70;3.33;;;0.70;99.90;;;;;;5119845;27;20042;-71
2023/12/01 01:49:40;;;;;;;11.25;4.60;;;0.70;99.90;;;;;;5102587;27;20099;-72
2023/12/01 01:52:06;;;;;;;10.88;4.65;;;0.70;99.90;;;;;;5125726;27;20026;-73
2023/12/01 01:54:32;;;;;;;11.35;4.22;;;0.70;99.90;;;;;;5123650;27;20631;-72
2023/12/01 01:56:58;;;;;;;13.65;5.28;;;0.60;99.90;;;;;;5109449;27;20036;-72
2023/12/01 01:59:24;;;;;;;8.30;4.05;;;0.60;99.90;;;;;;5107021;27;20070;-71
2023/12/01 02:01:51;;;;;;;12.25;4.97;;;0.60;99.90;;;;;;5110204;27;20088;-71
2023/12/01 02:04:17;;;;;;;14.95;4.15;;;0.60;99.90;;;;;;5101960;27;20039;-72
2023/12/01 02:06:46;;;;;;;13.02;4.15;;;0.60;99.90;;;;;;5107059;27;20089;-72
2023/12/01 02:12:52;;;;;;;8.35;4.07;;;0.60;99.90;;;;;;5138058;27;20387;-72
2023/12/01 02:15:18;;;;;;;9.35;3.53;;;0.60;99.90;;;;;;5116161;27;20031;-71
2023/12/01 02:17:44;;;;;;;12.30;4.32;;;0.50;99.90;;;;;;5115192;27;20104;-72
2023/12/01 02:20:14;;;;;;;13.43;4.28;;;0.60;99.90;;;;;;5123682;27;20050;-72
2023/12/01 02:22:42;;;;;;;10.80;4.00;;;0.60;99.90;;;;;;5118418;27;20432;-72
2023/12/01 02:25:08;;;;;;;8.48;4.05;;;0.50;99.90;;;;;;5124085;27;20050;-71
2023/12/01 02:27:34;;;;;;;11.57;4.25;;;0.50;99.90;;;;;;5104974;27;20035;-72
2023/12/01 02:30:00;;;;;;;9.45;3.38;;;0.50;99.90;;;;;;5116870;27;20063;-72
2023/12/01 02:32:25;;;;;;;11.13;5.82;;;0.50;99.90;;;;;;5112107;27;20067;-72
2023/12/01 02:34:51;;;;;;;11.15;4.78;;;0.60;99.90;;;;;;5122652;27;20088;-71
2023/12/01 02:37:17;;;;;;;7.85;3.25;;;0.50;99.90;;;;;;5121244;27;20042;-72
2023/12/01 02:39:43;;;;;;;12.63;4.22;;;0.50;99.90;;;;;;5118266;27;20038;-72
2023/12/01 02:42:08;;;;;;;9.27;3.55;;;0.50;99.90;;;;;;5116135;27;20046;-72
2023/12/01 02:44:34;;;;;;;15.55;4.20;;;0.40;99.90;;;;;;5106193;27;20039;-72
2023/12/01 02:47:00;;;;;;;12.23;3.92;;;0.40;99.90;;;;;;5122978;27;20043;-72
2023/12/01 02:49:26;;;;;;;6.88;3.60;;;0.40;99.90;;;;;;5113212;27;20062;-72
2023/12/01 02:51:52;;;;;;;7.43;4.10;;;0.40;99.90;;;;;;5113826;27;20471;-72
2023/12/01 02:54:18;;;;;;;12.45;4.32;;;0.40;99.90;;;;;;5098212;27;20068;-71
2023/12/01 02:56:43;;;;;;;10.02;3.92;;;0.40;99.90;;;;;;5117501;27;20035;-71
2023/12/01 02:59:09;;;;;;;13.93;4.18;;;0.40;99.90;;;;;;5118814;27;20084;-71
2023/12/01 03:01:35;;;;;;;9.05;3.33;;;0.40;99.90;;;;;;5134148;27;20036;-71
2023/12/01 03:04:01;;;;;;;17.05;5.32;;;0.40;99.90;;;;;;5122693;27;20039;-72
2023/12/01 03:06:26;;;;;;;12.00;4.55;;;0.40;99.90;;;;;;5111800;27;20076;-71
2023/12/01 03:08:52;;;;;;;9.82;4.40;;;0.40;99.90;;;;;;5113916;27;20047;-71
2023/12/01 03:11:23;;;;;;;7.90;3.13;;;0.40;99.90;;;;;;5109333;27;20467;-72
2023/12/01 03:13:50;;;;;;;11.93;4.72;;;0.40;99.90;;;;;;5110431;27;20049;-72
2023/12/01 03:16:16;;;;;;;8.30;3.40;;;0.30;99.90;;;;;;5113457;27;20424;-72
2023/12/01 03:22:41;;;;;;;10.45;3.95;;;0.40;99.90;;;;;;5126440;27;20406;-72
2023/12/01 03:25:09;;;;;;;8.82;3.67;;;0.30;99.90;;;;;;5109970;27;20045;-72
2023/12/01 03:27:42;;;;;;;7.70;4.20;;;0.30;99.90;;;;;;5122547;27;20043;-72
2023/12/01 03:30:13;;;;;;;11.27;4.63;;;0.30;99.90;;;;;;5103792;27;20030;-71
2023/12/01 03:32:46;;;;;;;10.55;3.40;;;0.30;99.90;;;;;;5117394;27;20038;-71
2023/12/01 03:35:13;;;;;;;7.05;3.15;;;0.30;99.90;;;;;;5106394;27;20067;-71
2023/12/01 03:37:39;;;;;;;18.15;4.63;;;0.20;99.90;;;;;;5104124;27;20114;-71
2023/12/01 03:40:12;;;;;;;14.30;3.88;;;0.20;99.90;;;;;;5124587;27;20114;-71
2023/12/01 03:42:49;;;;;;;9.57;3.60;;;0.20;99.90;;;;;;5119628;27;20113;-71
2023/12/01 03:45:15;;;;;;;12.40;2.85;;;0.20;99.90;;;;;;5118873;27;20035;-71
2023/12/01 03:47:49;;;;;;;10.50;4.63;;;0.10;99.90;;;;;;5116869;27;20040;-71
2023/12/01 03:50:18;;;;;;;14.73;4.75;;;0.10;99.90;;;;;;5107903;27;20057;-72
2023/12/01 03:52:49;;;;;;;8.67;3.27;;;0.10;99.90;;;;;;5119923;27;20095;-71
2023/12/01 03:55:15;;;;;;;5.95;2.45;;;0.00;99.90;;;;;;5118699;27;20359;-72
2023/12/01 03:57:42;;;;;;;8.57;3.22;;;0.00;99.90;;;;;;5121345;27;20535;-72
2023/12/01 04:00:13;;;;;;;9.70;3.85;;;0.00;99.90;;;;;;5111096;27;20066;-72
2023/12/01 04:02:43;;;;;;;8.75;3.35;;;0.00;99.90;;;;;;5119370;27;20050;-72
2023/12/01 04:05:17;;;;;;;10.05;4.30;;;-0.10;99.90;;;;;;5103399;27;20038;-72
2023/12/01 04:07:50;;;;;;;14.25;3.85;;;-0.10;99.90;;;;;;5122710;27;20423;-71
2023/12/01 04:10:16;;;;;;;8.73;3.80;;;-0.10;99.90;;;;;;5105111;27;20043;-72
2023/12/01 04:12:45;;;;;;;9.38;3.22;;;-0.10;99.90;;;;;;5119866;27;20040;-72
2023/12/01 04:15:13;;;;;;;9.52;3.80;;;-0.10;99.90;;;;;;5122957;27;20522;-72
2023/12/01 04:17:43;;;;;;;12.73;3.50;;;-0.10;99.90;;;;;;5090626;27;20110;-72
2023/12/01 04:20:24;;;;;;;11.15;3.45;;;-0.10;99.90;;;;;;5122092;27;20038;-72
2023/12/01 04:22:55;;;;;;;4.57;3.33;;;-0.20;99.90;;;;;;5119778;27;23352;-72
2023/12/01 04:25:21;;;;;;;10.10;4.20;;;-0.20;99.90;;;;;;5101393;27;20031;-72
2023/12/01 04:27:48;;;;;;;12.88;3.55;;;-0.20;99.90;;;;;;5110768;27;20049;-72
2023/12/01 04:30:15;;;;;;;11.70;3.45;;;-0.30;99.90;;;;;;5120208;27;20039;-72
2023/12/01 04:32:43;;;;;;;12.55;2.97;;;-0.30;99.90;;;;;;5121979;27;20390;-72
2023/12/01 04:35:10;;;;;;;8.75;4.40;;;-0.30;99.90;;;;;;5123367;27;20043;-71
2023/12/01 04:37:36;;;;;;;13.32;4.38;;;-0.30;99.90;;;;;;5107374;27;20161;-72
2023/12/01 04:40:03;;;;;;;13.38;4.18;;;-0.30;99.90;;;;;;5119800;27;20126;-72
2023/12/01 04:42:29;;;;;;;5.22;3.08;;;-0.30;99.90;;;;;;5121415;27;20083;-72
2023/12/01 04:44:55;;;;;;;7.07;3.25;;;-0.40;99.90;;;;;;5112345;27;20026;-71
2023/12/01 04:47:21;;;;;;;5.15;2.83;;;-0.40;99.90;;;;;;5104813;27;20035;-71
2023/12/01 04:49:46;;;;;;;11.35;3.47;;;-0.40;99.90;;;;;;5141683;27;20037;-71
2023/12/01 04:52:12;;;;;;;6.28;3.28;;;-0.40;99.90;;;;;;5101677;27;20122;-72
2023/12/01 04:54:38;;;;;;;8.57;3.80;;;-0.60;99.90;;;;;;5122245;27;20037;-72
2023/12/01 04:57:04;;;;;;;10.23;4.43;;;-0.60;99.90;;;;;;5116497;27;20104;-72
2023/12/01 04:59:30;;;;;;;7.28;2.45;;;-0.70;99.90;;;;;;5099258;27;20043;-72
2023/12/01 05:01:56;;;;;;;9.52;3.90;;;-0.80;99.90;;;;;;5102770;27;20042;-72
2023/12/01 05:04:25;;;;;;;7.85;3.25;;;-0.80;99.90;;;;;;5122196;27;20688;-71
2023/12/01 05:06:50;;;;;;;4.68;2.92;;;-0.90;99.90;;;;;;5123291;27;20065;-72
2023/12/01 05:09:21;;;;;;;5.30;2.65;;;-1.00;99.90;;;;;;5111412;27;20044;-71
2023/12/01 05:11:47;;;;;;;16.95;4.80;;;-1.00;99.90;;;;;;5100101;27;20045;-71
2023/12/01 05:14:13;;;;;;;4.57;3.00;;;-1.10;99.90;;;;;;5098734;28;20107;-72
2023/12/01 05:16:41;;;;;;;9.57;3.15;;;-1.20;99.90;;;;;;5104786;28;20044;-71
2023/12/01 05:19:07;;;;;;;8.32;3.80;;;-1.20;99.90;;;;;;5080686;27;20059;-71
2023/12/01 05:21:33;;;;;;;7.30;3.40;;;-1.30;99.90;;;;;;5108050;27;20109;-72
2023/12/01 05:24:13;;;;;;;4.78;3.10;;;-1.30;99.90;;;;;;5094337;28;20036;-72
2023/12/01 05:26:39;;;;;;;11.30;4.00;;;-1.40;99.90;;;;;;5095479;27;20514;-71
2023/12/01 05:29:12;;;;;;;7.38;2.83;;;-1.40;99.90;;;;;;5085707;28;20039;-72
2023/12/01 05:31:39;;;;;;;7.93;3.03;;;-1.50;99.90;;;;;;5100699;27;20047;-71
2023/12/01 05:34:05;;;;;;;7.03;2.95;;;-1.50;99.90;;;;;;5098841;27;20089;-71
2023/12/01 05:36:31;;;;;;;6.85;2.78;;;-1.60;99.90;;;;;;5120567;27;20059;-71
2023/12/01 05:38:57;;;;;;;6.40;4.15;;;-1.60;99.90;;;;;;5095745;27;20114;-71
2023/12/01 05:41:23;;;;;;;8.80;4.40;;;-1.60;99.90;;;;;;5104145;27;20041;-71
2023/12/01 05:43:49;;;;;;;11.73;3.83;;;-1.70;99.90;;;;;;5104502;27;20103;-71
2023/12/01 05:46:14;;;;;;;6.82;2.50;;;-1.70;99.90;;;;;;5092053;27;20039;-71
2023/12/01 05:48:41;;;;;;;6.32;2.67;;;-1.70;99.90;;;;;;5096799;27;20051;-71
2023/12/01 05:51:07;;;;;;;6.18;2.30;;;-1.80;99.90;;;;;;5089621;27;20474;-71
2023/12/01 05:53:34;;;;;;;12.13;3.55;;;-1.80;99.90;;;;;;5097140;28;20035;-71
2023/12/01 05:56:03;;;;;;;6.68;3.45;;;-1.90;99.90;;;;;;5099106;27;20482;-71
2023/12/01 05:58:29;;;;;;;9.43;3.45;;;-1.90;99.90;;;;;;5086909;27;20066;-71
2023/12/01 06:00:55;;;;;;;6.95;3.67;;;-1.90;99.90;;;;;;5101121;27;20055;-71
2023/12/01 06:03:21;;;;;;;7.07;2.30;;;-1.90;99.90;;;;;;5099641;27;20054;-71
2023/12/01 06:05:48;;;;;;;5.78;2.92;;;-1.90;99.90;;;;;;5098553;27;20051;-71
2023/12/01 06:08:14;;;;;;;3.38;2.20;;;-2.00;99.90;;;;;;5104599;27;20058;-71
2023/12/01 06:10:40;;;;;;;9.98;3.58;;;-2.00;99.90;;;;;;5082528;27;20408;-71
2023/12/01 06:13:06;;;;;;;10.50;3.40;;;-2.00;99.90;;;;;;5100082;27;20043;-71
2023/12/01 06:15:32;;;;;;;7.55;3.40;;;-2.00;99.90;;;;;;5100755;28;20040;-71
2023/12/01 06:17:59;;;;;;;7.57;2.75;;;-2.10;99.90;;;;;;5098117;28;20062;-71
2023/12/01 06:20:25;;;;;;;3.72;2.45;;;-2.10;99.90;;;;;;5088728;27;20039;-71
2023/12/01 06:22:59;;;;;;;5.03;3.17;;;-2.10;99.90;;;;;;5100146;27;20045;-71
2023/12/01 06:25:31;;;;;;;6.22;3.03;;;-2.20;99.90;;;;;;5098920;28;20048;-70
2023/12/01 06:28:04;;;;;;;7.38;2.58;;;-2.30;99.90;;;;;;5079974;27;20055;-71
2023/12/01 06:30:33;;;;;;;7.13;3.03;;;-2.30;99.90;;;;;;5103114;27;20089;-71
2023/12/01 06:33:00;;;;;;;5.60;3.53;;;-2.40;99.90;;;;;;5100584;27;20043;-71
2023/12/01 06:35:27;;;;;;;4.72;2.28;;;-2.50;99.90;;;;;;5086463;27;20118;-71
2023/12/01 06:37:53;;;;;;;6.43;1.95;;;-2.50;99.90;;;;;;5099916;27;20471;-71
2023/12/01 06:40:20;;;;;;;7.25;4.20;;;-2.50;99.90;;;;;;5093224;27;20051;-71
2023/12/01 06:42:54;;;;;;;14.15;4.30;;;-2.50;99.90;;;;;;5102325;27;20117;-71
2023/12/01 06:45:23;;;;;;;6.90;3.97;;;-2.50;99.90;;;;;;5099452;27;20044;-71
2023/12/01 06:47:50;;;;;;;6.18;4.32;;;-2.50;99.90;;;;;;5116011;27;20043;-71
2023/12/01 06:50:18;;;;;;;9.63;3.03;;;-2.50;99.90;;;;;;5101357;27;20038;-71
2023/12/01 06:52:45;;;;;;;10.15;3.17;;;-2.60;99.90;;;;;;5097727;28;20044;-71
2023/12/01 06:55:12;;;;;;;10.23;3.97;;;-2.60;99.90;;;;;;5099118;27;20027;-71
2023/12/01 06:57:46;;;;;;;8.90;4.25;;;-2.60;99.90;;;;;;5099679;28;20031;-71
2023/12/01 07:00:29;;;;;;;7.28;3.35;;;-2.60;99.90;;;;;;5074777;28;20067;-72
2023/12/01 07:02:59;;;;;;;11.35;2.90;;;-2.60;99.90;;;;;;5092799;27;20040;-71
2023/12/01 07:05:28;;;;;;;;;;;-2.60;99.90;;;;;;5101524;27;20047;-71
2023/12/01 07:07:56;;;;;;;4.68;2.38;;;-2.70;99.90;;;;;;5074824;27;20425;-71
2023/12/01 07:10:22;;;;;;;6.72;3.72;;;-2.60;99.90;;;;;;5096482;28;20143;-71
2023/12/01 07:12:49;;;;;;;8.32;2.13;;;-2.70;99.90;;;;;;5096720;27;20071;-71
2023/12/01 07:15:21;;;;;;;10.88;3.38;;;-2.70;99.90;;;;;;5098608;27;20035;-71
2023/12/01 07:17:56;;;;;;;11.20;4.68;;;-2.70;99.90;;;;;;5094067;28;20036;-71
2023/12/01 07:20:22;;;;;;;6.35;3.00;;;-2.70;99.90;;;;;;5094141;27;20035;-71
2023/12/01 07:22:49;;;;;;;6.15;2.30;;;-2.70;99.90;;;;;;5094427;27;20042;-71
2023/12/01 07:25:23;;;;;;;7.40;3.35;;;-2.80;99.90;;;;;;5094849;28;20114;-72
2023/12/01 07:27:53;;;;;;;3.90;2.03;;;-2.80;99.90;;;;;;5090378;27;20037;-71
2023/12/01 07:30:19;;;;;;;;;;;-2.80;99.90;;;;;;5090218;28;20074;-71
2023/12/01 07:32:46;;;;;;;5.45;2.67;;;-2.80;99.90;;;;;;5105754;28;19966;-71
2023/12/01 07:35:12;;;;;;;9.25;3.95;;;-2.80;99.90;;;;;;5093680;28;20376;-72
2023/12/01 07:37:42;;;;;;;6.35;3.13;;;-2.90;99.90;;;;;;5083522;27;20416;-71
2023/12/01 07:40:11;;;;;;;9.23;2.40;;;-2.90;99.90;;;;;;5106102;27;20043;-72
2023/12/01 07:42:40;;;;;;;6.53;3.00;;;-2.90;99.90;;;;;;5118839;27;20088;-71
2023/12/01 07:45:07;;;;;;;4.68;2.15;;;-2.90;99.90;;;;;;5118734;27;20031;-72
2023/12/01 07:47:33;;;;;;;7.00;2.85;;;-2.90;99.90;;;;;;5109527;27;20041;-72
2023/12/01 07:49:59;;;;;;;6.05;2.65;;;-2.80;99.90;;;;;;5119002;27;20039;-72
2023/12/01 07:52:25;;;;;;;9.57;2.83;;;-2.80;99.90;;;;;;5121004;27;20099;-72
2023/12/01 07:54:51;;;;;;;8.02;3.80;;;-2.80;99.90;;;;;;5119018;27;20030;-72
2023/12/01 07:57:18;;;;;;;7.70;4.82;;;-2.70;99.90;;;;;;5102989;27;20395;-72
2023/12/01 07:59:44;;;;;;;13.95;4.85;;;-2.70;99.90;;;;;;5137063;27;20716;-72
2023/12/01 08:02:10;;;;;;;5.60;3.22;;;-2.60;99.90;;;;;;5118799;27;20094;-72
2023/12/01 08:04:35;;;;;;;8.27;4.45;;;-2.60;99.90;;;;;;5112003;27;20032;-71
2023/12/01 08:07:02;;;;;;;5.30;2.85;;;-2.50;99.90;;;;;;5121100;27;20043;-72
2023/12/01 08:09:31;;;;;;;5.93;2.25;;;-2.50;99.90;;;;;;5114271;27;20043;-72
2023/12/01 08:12:03;;;;;;;4.80;1.67;;;-2.50;99.90;;;;;;5111510;27;20043;-72
2023/12/01 08:14:29;;;;;;;5.47;3.97;;;-2.40;99.90;;;;;;5120944;27;20455;-72
2023/12/01 08:16:55;;;;;;;7.32;3.88;;;-2.30;99.90;;;;;;5116185;27;20046;-72
2023/12/01 08:19:21;;;;;;;13.73;4.85;;;-2.30;99.90;;;;;;5119168;27;20587;-72
2023/12/01 08:21:46;;;;;;;7.45;3.50;;;-2.20;99.90;;;;;;5119583;27;20114;-72
2023/12/01 08:24:12;;;;;;;6.97;2.97;;;-2.00;99.90;;;;;;5113275;27;20479;-72
2023/12/01 08:26:38;;;;;;;9.50;3.90;;;-1.80;99.90;;;;;;5120037;27;20043;-72
2023/12/01 08:29:04;;;;;;;12.55;4.43;;;-1.40;99.90;;;;;;5124980;27;20034;-72
2023/12/01 08:31:31;;;;;;;12.10;4.80;;;-0.80;99.90;;;;;;5098100;27;20083;-72
2023/12/01 08:34:00;;;;;;;11.38;4.65;;;-0.20;99.90;;;;;;5119156;27;20035;-72
2023/12/01 08:36:26;;;;;;;10.90;4.20;;;0.40;99.90;;;;;;5103592;27;20050;-72
2023/12/01 08:38:52;;;;;;;13.05;5.45;;;0.90;99.90;;;;;;5114748;27;20031;-72
2023/12/01 08:41:18;;;;;;;12.43;5.45;;;1.10;99.90;;;;;;5105070;27;20031;-72
2023/12/01 08:43:44;;;;;;;13.57;4.30;;;1.50;99.90;;;;;;5120951;27;20507;-72
2023/12/01 08:46:10;;;;;;;12.20;5.63;;;1.60;99.90;;;;;;5098722;27;20034;-72
2023/12/01 08:48:36;;;;;;;12.50;4.95;;;1.90;99.90;;;;;;5105198;27;20458;-72
2023/12/01 08:51:02;;;;;;;14.73;5.07;;;2.30;99.90;;;;;;5115732;27;20580;-72
2023/12/01 08:53:28;;;;;;;11.27;4.78;;;2.60;99.90;;;;;;5117439;27;20170;-72
2023/12/01 08:55:56;;;;;;;11.32;4.80;;;3.00;99.90;;;;;;5122962;27;20479;-72
2023/12/01 08:58:22;;;;;;;14.02;6.07;;;3.50;99.90;;;;;;5113207;27;20091;-72
2023/12/01 09:00:48;;;;;;;10.13;4.90;;;4.00;99.90;;;;;;5118318;27;20122;-72
2023/12/01 09:03:14;;;;;;;14.85;5.20;;;4.40;99.90;;;;;;5118517;27;20043;-72
2023/12/01 09:05:40;;;;;;;12.30;5.13;;;4.80;99.90;;;;;;5118064;27;20039;-72
2023/12/01 09:08:07;;;;;;;9.93;4.15;;;5.20;99.90;;;;;;5117907;28;20499;-72
2023/12/01 09:10:33;;;;;;;12.80;5.47;;;5.60;99.90;;;;;;5095366;28;20126;-72
2023/12/01 09:12:59;;;;;;;17.65;6.40;;;5.70;99.90;;;;;;5099763;28;20119;-72
2023/12/01 09:15:25;;;;;;;15.38;5.28;;;5.90;99.90;;;;;;5102388;28;20049;-72
2023/12/01 09:17:54;;;;;;;11.32;4.65;;;6.10;99.90;;;;;;5088187;28;20087;-72
2023/12/01 09:20:20;;;;;;;14.20;5.50;;;6.60;99.90;;;;;;5097221;28;20035;-72
2023/12/01 09:22:47;;;;;;;13.82;5.22;;;6.90;99.90;;;;;;5097236;27;20048;-72
2023/12/01 09:32:44;;;;;;;16.08;6.82;;;7.70;99.90;;;;;;5118811;27;20072;-72
2023/12/01 09:35:15;;;;;;;14.50;5.50;;;8.20;99.90;;;;;;5105085;27;20031;-72
2023/12/01 09:37:42;;;;;;;15.82;6.68;;;8.50;99.90;;;;;;5099457;27;20115;-72
2023/12/01 09:40:09;;;;;;;13.40;5.90;;;8.50;99.90;;;;;;5098896;27;20438;-72
2023/12/01 09:42:37;;;;;;;18.05;5.88;;;8.20;99.90;;;;;;5102933;27;20046;-73
2023/12/01 09:45:04;;;;;;;14.40;6.13;;;8.00;99.90;;;;;;5098911;28;20035;-74
2023/12/01 09:47:32;;;;;;;15.95;5.75;;;8.10;99.90;;;;;;5102362;28;20039;-72
2023/12/01 09:49:58;;;;;;;13.05;4.90;;;8.00;99.90;;;;;;5095373;28;20028;-72
2023/12/01 09:52:24;;;;;;;12.90;4.82;;;7.90;99.90;;;;;;5098222;27;20042;-72
2023/12/01 09:54:50;;;;;;;13.93;6.43;;;8.10;99.90;;;;;;5100876;27;20515;-72
2023/12/01 09:57:16;;;;;;;10.00;5.30;;;8.10;99.90;;;;;;5083477;27;20075;-72
2023/12/01 09:59:47;;;;;;;13.10;5.25;;;7.70;99.90;;;;;;5099215;27;20039;-72
2023/12/01 10:02:13;;;;;;;14.05;5.25;;;7.60;99.90;;;;;;5100590;27;20040;-72
2023/12/01 10:04:39;;;;;;;12.23;5.63;;;7.60;99.90;;;;;;5079457;27;20118;-72
2023/12/01 10:07:05;;;;;;;15.18;6.18;;;7.70;99.90;;;;;;5103162;28;20111;-71
2023/12/01 10:09:32;;;;;;;14.55;5.38;;;7.90;99.90;;;;;;5084545;28;20073;-71
2023/12/01 10:12:09;;;;;;;13.43;5.65;;;8.20;99.90;;;;;;5097713;28;20457;-71
2023/12/01 10:14:36;;;;;;;15.20;5.78;;;8.40;99.90;;;;;;5102873;27;20116;-71
2023/12/01 10:17:03;;;;;;;14.38;5.20;;;8.60;99.90;;;;;;5100279;27;20027;-71
2023/12/01 10:19:33;;;;;;;16.33;5.43;;;8.80;99.90;;;;;;5097687;27;20069;-71
2023/12/01 10:22:00;;;;;;;12.13;4.40;;;8.90;99.90;;;;;;5097593;27;20110;-71
2023/12/01 10:24:26;;;;;;;10.15;4.45;;;8.80;99.90;;;;;;5094263;27;20067;-71
2023/12/01 10:26:56;;;;;;;13.13;4.63;;;8.80;99.90;;;;;;5104068;27;20039;-74
2023/12/01 10:29:32;;;;;;;13.55;5.28;;;9.00;99.90;;;;;;5104728;27;20031;-70
2023/12/01 10:31:59;;;;;;;15.20;5.00;;;9.30;99.90;;;;;;5098321;27;20031;-71
2023/12/01 10:34:25;;;;;;;13.23;4.70;;;9.40;99.90;;;;;;5101090;27;20044;-71
2023/12/01 10:36:55;;;;;;;13.00;5.07;;;9.50;99.90;;;;;;5122723;27;20499;-71
2023/12/01 10:39:29;;;;;;;15.65;5.50;;;9.50;99.90;;;;;;5082105;27;20040;-71
2023/12/01 10:42:47;;;;;;;14.60;4.50;;;9.60;99.90;;;;;;5080655;27;20112;-72
2023/12/01 10:45:15;;;;;;;11.63;4.40;;;9.60;99.90;;;;;;5092777;27;20039;-71
2023/12/01 10:48:00;;;;;;;14.05;4.80;;;9.80;99.90;;;;;;5111092;27;20081;-71
2023/12/01 10:50:27;;;;;;;13.25;5.10;;;9.70;99.90;;;;;;5104675;27;20035;-71
2023/12/01 10:52:56;;;;;;;10.90;4.47;;;9.50;99.90;;;;;;5098227;27;20141;-70
2023/12/01 10:55:22;;;;;;;12.50;4.63;;;9.40;99.90;;;;;;5101348;27;20035;-71
2023/12/01 10:57:48;;;;;;;10.10;4.05;;;9.30;99.90;;;;;;5100026;28;20411;-70
2023/12/01 11:00:30;;;;;;;12.30;5.03;;;9.00;99.90;;;;;;5096696;27;20031;-70
2023/12/01 11:03:00;;;;;;;14.50;5.07;;;8.70;99.90;;;;;;5100868;27;20043;-70
2023/12/01 11:05:30;;;;;;;10.70;4.80;;;8.40;99.90;;;;;;5095823;27;20038;-71
2023/12/01 11:08:19;;;;;;;10.73;4.53;;;8.30;99.90;;;;;;5093020;28;20114;-75
2023/12/01 11:10:57;;;;;;;10.73;5.10;;;8.30;99.90;;;;;;5102652;27;20070;-72
2023/12/01 11:14:02;;;;;;;7.82;4.35;;;8.20;99.90;;;;;;5097683;27;20111;-71
2023/12/01 11:16:31;;;;;;;9.93;3.72;;;8.10;99.90;;;;;;5068031;27;20043;-72
2023/12/01 11:18:58;;;;;;;9.10;4.32;;;7.80;99.90;;;;;;5119058;27;20403;-74
2023/12/01 11:21:24;;;;;;;9.93;4.53;;;7.60;99.90;;;;;;5099012;27;20483;-71
2023/12/01 11:23:50;;;;;;;11.77;4.32;;;7.30;99.90;;;;;;5098579;27;20039;-73
2023/12/01 11:26:16;;;;;;;8.57;3.65;;;7.30;99.90;;;;;;5093501;27;20476;-73
2023/12/01 11:28:43;;;;;;;11.98;4.05;;;7.40;99.90;;;;;;5036611;28;20089;-72
2023/12/01 11:31:34;;;;;;;9.20;3.47;;;7.60;99.90;;;;;;5018489;28;20825;-70
2023/12/01 11:34:04;;;;;;;9.57;3.58;;;7.80;99.90;;;;;;5066753;27;20350;-72
2023/12/01 11:36:31;;;;;;;;;;;7.60;99.90;;;;;;5091882;28;20044;-73
2023/12/01 11:39:20;;;;;;;6.85;3.22;;;7.20;99.90;;;;;;5069423;27;20010;-73
2023/12/01 11:41:55;;;;;;;7.95;3.33;;;6.80;99.90;;;;;;5091171;28;20100;-72
2023/12/01 11:44:34;;;;;;;8.95;3.53;;;6.70;99.90;;;;;;5093590;28;20529;-72
2023/12/01 11:47:02;;;;;;;10.27;4.07;;;6.30;99.90;;;;;;5074595;27;20078;-72
2023/12/01 11:49:32;;;;;;;7.63;3.30;;;6.10;99.90;;;;;;5078361;27;20046;-72
2023/12/01 11:52:02;;;;;;;8.10;2.67;;;6.00;99.90;;;;;;5110546;27;20483;-72
2023/12/01 11:54:33;;;;;;;8.52;3.80;;;5.80;99.90;;;;;;5094010;27;20136;-73
2023/12/01 11:57:00;;;;;;;7.78;3.03;;;5.70;99.90;;;;;;5065931;27;20412;-72
2023/12/01 11:59:26;;;;;;;8.70;3.85;;;5.50;99.90;;;;;;5032397;27;20055;-72
2023/12/01 12:01:56;;;;;;;9.35;3.60;;;5.30;99.90;;;;;;5048919;27;20051;-71
2023/12/01 12:04:23;;;;;;;5.20;2.97;;;4.90;99.90;;;;;;5107952;27;20578;-71
2023/12/01 12:06:50;;;;;;;9.43;3.78;;;4.40;99.90;;;;;;5086654;28;20036;-72
2023/12/01 12:09:19;;;;;;;7.63;2.90;;;3.90;99.90;;;;;;5090089;27;20099;-71
2023/12/01 12:11:48;;;;;;;8.82;4.38;;;3.70;99.90;;;;;;5099844;27;20482;-71
2023/12/01 12:14:15;;;;;;;7.13;3.53;;;3.70;99.90;;;;;;5091021;27;20031;-71
2023/12/01 12:16:41;;;;;;;7.38;3.05;;;3.50;99.90;;;;;;5098678;27;20560;-71
2023/12/01 12:19:08;;;;;;;6.65;2.88;;;3.30;99.90;;;;;;5094416;28;20035;-71
2023/12/01 12:21:35;;;;;;;7.13;3.17;;;3.30;99.90;;;;;;5095394;28;20544;-71
2023/12/01 12:24:02;;;;;;;8.30;3.60;;;3.40;99.90;;;;;;5099087;27;20054;-72
2023/12/01 12:26:29;;;;;;;6.65;3.55;;;3.30;99.90;;;;;;5098228;28;20418;-72
2023/12/01 12:29:01;;;;;;;8.40;3.90;;;3.30;99.90;;;;;;5105994;28;20119;-70
2023/12/01 12:31:31;;;;;;;7.90;3.00;;;3.20;99.90;;;;;;5094060;28;20046;-72
2023/12/01 12:33:59;;;;;;;6.90;3.10;;;3.10;99.90;;;;;;5097272;28;20526;-71
2023/12/01 12:36:29;;;;;;;8.68;3.78;;;3.00;99.90;;;;;;5099865;28;20082;-71
2023/12/01 12:38:58;;;;;;;8.52;3.25;;;2.90;99.90;;;;;;5102409;28;20054;-71
2023/12/01 12:41:28;;;;;;;13.55;4.05;;;2.70;99.90;;;;;;5099422;28;20046;-73
2023/12/01 12:44:02;;;;;;;8.90;3.88;;;2.50;99.90;;;;;;5081519;28;20232;-71
2023/12/01 12:46:30;;;;;;;6.40;3.05;;;2.40;99.90;;;;;;5101709;28;20084;-70
2023/12/01 12:48:57;;;;;;;10.27;4.10;;;2.20;99.90;;;;;;5097322;28;20151;-71
2023/12/01 12:51:25;;;;;;;4.95;2.40;;;2.20;99.90;;;;;;5081737;28;20092;-72
2023/12/01 12:53:52;;;;;;;10.57;3.95;;;2.10;99.90;;;;;;5094828;28;20046;-71
2023/12/01 12:56:21;;;;;;;7.38;3.63;;;2.10;99.90;;;;;;5095181;28;20081;-70
2023/12/01 12:58:48;;;;;;;7.32;2.50;;;2.10;99.90;;;;;;5099377;27;20514;-71
2023/12/01 13:01:14;;;;;;;7.70;3.13;;;2.00;99.90;;;;;;5099721;27;20046;-71
2023/12/01 13:03:43;;;;;;;8.45;3.50;;;1.90;99.90;;;;;;5096583;27;20043;-71
2023/12/01 13:06:10;;;;;;;7.95;2.90;;;1.90;99.90;;;;;;5097469;27;20054;-71
2023/12/01 13:08:38;;;;;;;5.35;2.92;;;1.80;99.90;;;;;;5095845;27;20054;-70
2023/12/01 13:11:05;;;;;;;10.27;3.63;;;1.80;99.90;;;;;;5100214;27;20082;-70
2023/12/01 13:13:31;;;;;;;7.28;3.17;;;1.70;99.90;;;;;;5099499;27;20048;-66